createdAt,value
2018-12-13T00:00:14.055Z,42.20
2018-12-13T00:01:14.254Z,34.60
2018-12-13T00:02:14.030Z,35.60
2018-12-13T00:03:14.151Z,39.90
2018-12-13T00:04:14.005Z,39.60
2018-12-13T00:05:14.182Z,34.00
2018-12-13T00:06:13.991Z,32.10
2018-12-13T00:07:14.050Z,28.50
2018-12-13T00:08:13.983Z,35.30
2018-12-13T00:09:14.114Z,35.70
2018-12-13T00:10:13.955Z,33.50
2018-12-13T00:11:15.104Z,35.60
2018-12-13T00:12:13.917Z,31.90
2018-12-13T00:13:13.981Z,31.90
2018-12-13T00:14:13.896Z,31.90
2018-12-13T00:15:15.039Z,32.50
2018-12-13T00:16:13.871Z,31.30
2018-12-13T00:17:14.909Z,31.40
2018-12-13T00:18:13.869Z,39.20
2018-12-13T00:19:14.977Z,34.50
2018-12-13T00:20:13.826Z,36.10
2018-12-13T00:21:13.928Z,34.50
2018-12-13T00:22:13.815Z,34.90
2018-12-13T00:23:13.935Z,33.00
2018-12-13T00:24:13.794Z,37.10
2018-12-13T00:25:13.855Z,32.90
2018-12-13T00:26:13.759Z,40.40
2018-12-13T00:27:13.940Z,39.40
2018-12-13T00:28:13.758Z,35.40
2018-12-13T00:29:13.795Z,38.60
2018-12-13T00:30:13.716Z,40.40
2018-12-13T00:31:13.869Z,45.50
2018-12-13T00:32:13.695Z,38.10
2018-12-13T00:33:13.865Z,45.00
2018-12-13T00:34:13.667Z,40.20
2018-12-13T00:35:14.725Z,46.30
2018-12-13T00:36:13.649Z,52.20
2018-12-13T00:37:13.770Z,39.00
2018-12-13T00:38:13.655Z,45.10
2018-12-13T00:39:14.800Z,48.10
2018-12-13T00:40:13.598Z,50.30
2018-12-13T00:41:13.740Z,45.10
2018-12-13T00:42:13.576Z,57.30
2018-12-13T00:43:13.672Z,53.60
2018-12-13T00:44:13.580Z,52.50
2018-12-13T00:45:13.751Z,46.50
2018-12-13T00:46:13.541Z,45.20
2018-12-13T00:47:13.613Z,54.60
2018-12-13T00:48:13.516Z,48.00
2018-12-13T00:49:13.711Z,47.70
2018-12-13T00:50:13.504Z,49.00
2018-12-13T00:51:13.652Z,47.70
2018-12-13T00:52:13.469Z,50.30
2018-12-13T00:53:13.517Z,48.70
2018-12-13T00:54:13.497Z,47.20
2018-12-13T00:55:13.582Z,44.80
2018-12-13T00:56:13.989Z,45.20
2018-12-13T00:57:14.691Z,40.50
2018-12-13T00:58:13.401Z,47.40
2018-12-13T00:59:21.314Z,51.00
2018-12-13T01:00:13.390Z,44.20
2018-12-13T01:01:13.491Z,51.80
2018-12-13T01:02:13.357Z,51.80
2018-12-13T01:03:13.456Z,43.10
2018-12-13T01:04:15.279Z,42.80
2018-12-13T01:05:13.426Z,40.50
2018-12-13T01:06:13.309Z,47.40
2018-12-13T01:07:13.494Z,39.80
2018-12-13T01:08:13.297Z,38.40
2018-12-13T01:09:13.405Z,43.80
2018-12-13T01:10:13.265Z,55.60
2018-12-13T01:11:17.431Z,49.20
2018-12-13T01:12:13.244Z,40.10
2018-12-13T01:13:14.443Z,39.30
2018-12-13T01:14:13.279Z,41.40
2018-12-13T01:15:13.269Z,46.50
2018-12-13T01:16:13.290Z,49.20
2018-12-13T01:17:13.340Z,42.20
2018-12-13T01:18:13.175Z,51.00
2018-12-13T01:19:13.237Z,47.30
2018-12-13T01:20:13.171Z,48.50
2018-12-13T01:21:13.335Z,51.00
2018-12-13T01:22:13.132Z,54.40
2018-12-13T01:23:13.243Z,51.80
2018-12-13T01:24:13.143Z,43.80
2018-12-13T01:25:13.218Z,42.20
2018-12-13T01:26:13.081Z,48.10
2018-12-13T01:27:13.181Z,49.70
2018-12-13T01:28:13.070Z,47.90
2018-12-13T01:29:15.098Z,41.10
2018-12-13T01:30:13.062Z,47.50
2018-12-13T01:31:13.115Z,46.00
2018-12-13T01:32:13.074Z,49.40
2018-12-13T01:33:13.098Z,49.60
2018-12-13T01:34:12.993Z,42.80
2018-12-13T01:35:13.189Z,52.30
2018-12-13T01:36:12.980Z,46.00
2018-12-13T01:37:13.023Z,47.90
2018-12-13T01:38:12.957Z,46.60
2018-12-13T01:39:13.097Z,44.90
2018-12-13T01:40:12.952Z,47.00
2018-12-13T01:41:13.057Z,48.10
2018-12-13T01:42:12.942Z,45.60
2018-12-13T01:43:13.034Z,50.00
2018-12-13T01:44:13.006Z,42.70
2018-12-13T01:45:13.033Z,46.50
2018-12-13T01:46:12.867Z,49.70
2018-12-13T01:47:15.014Z,48.80
2018-12-13T01:48:12.843Z,43.10
2018-12-13T01:49:14.979Z,47.30
2018-12-13T01:50:12.837Z,47.50
2018-12-13T01:51:12.901Z,49.60
2018-12-13T01:52:12.801Z,48.20
2018-12-13T01:53:21.051Z,46.80
2018-12-13T01:54:12.774Z,42.80
2018-12-13T01:55:12.869Z,42.00
2018-12-13T01:56:12.750Z,43.50
2018-12-13T01:57:12.909Z,41.00
2018-12-13T01:58:12.725Z,41.80
2018-12-13T01:59:12.768Z,40.60
2018-12-13T02:00:12.729Z,45.40
2018-12-13T02:01:12.852Z,37.50
2018-12-13T02:02:12.677Z,39.10
2018-12-13T02:03:13.839Z,43.20
2018-12-13T02:04:12.666Z,42.10
2018-12-13T02:05:12.814Z,41.90
2018-12-13T02:06:12.633Z,37.60
2018-12-13T02:07:12.748Z,41.10
2018-12-13T02:08:12.621Z,37.20
2018-12-13T02:09:12.819Z,39.60
2018-12-13T02:10:12.595Z,38.30
2018-12-13T02:11:12.719Z,39.80
2018-12-13T02:12:12.572Z,38.50
2018-12-13T02:13:12.655Z,40.80
2018-12-13T02:14:12.545Z,39.70
2018-12-13T02:15:12.725Z,45.50
2018-12-13T02:16:12.549Z,38.40
2018-12-13T02:17:12.587Z,36.40
2018-12-13T02:18:12.505Z,41.40
2018-12-13T02:19:12.663Z,37.10
2018-12-13T02:20:12.485Z,35.80
2018-12-13T02:21:12.575Z,38.20
2018-12-13T02:22:12.457Z,37.30
2018-12-13T02:23:12.599Z,36.80
2018-12-13T02:24:12.433Z,36.30
2018-12-13T02:25:12.559Z,36.10
2018-12-13T02:26:12.427Z,38.60
2018-12-13T02:27:12.529Z,34.20
2018-12-13T02:28:12.389Z,38.40
2018-12-13T02:29:13.527Z,41.20
2018-12-13T02:30:12.362Z,39.40
2018-12-13T02:31:12.609Z,38.50
2018-12-13T02:32:12.344Z,40.30
2018-12-13T02:33:12.432Z,37.40
2018-12-13T02:34:12.324Z,38.70
2018-12-13T02:35:12.398Z,35.70
2018-12-13T02:36:12.324Z,34.10
2018-12-13T02:37:12.473Z,34.60
2018-12-13T02:38:12.281Z,31.40
2018-12-13T02:39:12.341Z,33.10
2018-12-13T02:40:12.257Z,31.40
2018-12-13T02:41:12.441Z,32.60
2018-12-13T02:42:12.237Z,35.50
2018-12-13T02:43:12.378Z,36.20
2018-12-13T02:44:12.207Z,28.50
2018-12-13T02:45:12.347Z,29.70
2018-12-13T02:46:12.204Z,27.30
2018-12-13T02:47:12.312Z,30.40
2018-12-13T02:48:12.161Z,33.90
2018-12-13T02:49:12.288Z,33.20
2018-12-13T02:50:12.142Z,31.80
2018-12-13T02:51:12.300Z,32.10
2018-12-13T02:52:12.130Z,30.60
2018-12-13T02:53:12.221Z,30.40
2018-12-13T02:54:12.097Z,34.40
2018-12-13T02:55:12.188Z,30.20
2018-12-13T02:56:12.106Z,29.70
2018-12-13T02:57:12.157Z,30.20
2018-12-13T02:58:12.054Z,29.20
2018-12-13T02:59:12.229Z,28.80
2018-12-13T03:00:12.033Z,27.20
2018-12-13T03:01:13.110Z,27.10
2018-12-13T03:02:12.027Z,28.40
2018-12-13T03:03:12.179Z,31.80
2018-12-13T03:04:11.990Z,27.90
2018-12-13T03:05:12.130Z,26.10
2018-12-13T03:06:11.961Z,29.60
2018-12-13T03:07:14.041Z,27.90
2018-12-13T03:08:11.939Z,28.90
2018-12-13T03:09:12.069Z,25.90
2018-12-13T03:10:11.920Z,23.60
2018-12-13T03:11:12.138Z,26.20
2018-12-13T03:12:11.955Z,23.30
2018-12-13T03:13:12.002Z,23.80
2018-12-13T03:14:11.871Z,26.20
2018-12-13T03:15:11.968Z,26.10
2018-12-13T03:16:11.854Z,25.50
2018-12-13T03:17:11.973Z,29.20
2018-12-13T03:18:11.831Z,24.30
2018-12-13T03:19:11.908Z,24.40
2018-12-13T03:20:11.804Z,25.10
2018-12-13T03:21:12.898Z,25.70
2018-12-13T03:22:11.803Z,24.00
2018-12-13T03:23:11.838Z,24.90
2018-12-13T03:24:11.764Z,25.00
2018-12-13T03:25:11.914Z,25.90
2018-12-13T03:26:11.739Z,27.20
2018-12-13T03:27:11.812Z,24.80
2018-12-13T03:28:11.717Z,25.50
2018-12-13T03:29:12.872Z,28.10
2018-12-13T03:30:11.719Z,24.70
2018-12-13T03:31:11.820Z,23.60
2018-12-13T03:32:11.697Z,24.90
2018-12-13T03:33:11.786Z,26.40
2018-12-13T03:34:11.652Z,24.90
2018-12-13T03:35:11.754Z,20.90
2018-12-13T03:36:11.662Z,23.70
2018-12-13T03:37:11.758Z,27.40
2018-12-13T03:38:11.604Z,26.70
2018-12-13T03:39:11.796Z,24.10
2018-12-13T03:40:11.580Z,26.50
2018-12-13T03:41:11.660Z,20.50
2018-12-13T03:42:11.577Z,23.60
2018-12-13T03:43:11.725Z,25.00
2018-12-13T03:44:11.535Z,26.80
2018-12-13T03:45:11.597Z,23.50
2018-12-13T03:46:11.514Z,24.10
2018-12-13T03:47:11.698Z,24.00
2018-12-13T03:48:11.494Z,21.00
2018-12-13T03:49:11.631Z,25.70
2018-12-13T03:50:11.501Z,25.00
2018-12-13T03:51:11.602Z,25.00
2018-12-13T03:52:11.484Z,24.40
2018-12-13T03:53:11.575Z,23.30
2018-12-13T03:54:11.419Z,27.20
2018-12-13T03:55:11.535Z,25.90
2018-12-13T03:56:11.403Z,23.60
2018-12-13T03:57:11.506Z,24.30
2018-12-13T03:58:11.400Z,24.40
2018-12-13T03:59:11.473Z,25.90
2018-12-13T04:00:11.351Z,24.70
2018-12-13T04:01:11.544Z,27.10
2018-12-13T04:02:11.335Z,23.70
2018-12-13T04:03:11.450Z,23.60
2018-12-13T04:04:11.310Z,30.50
2018-12-13T04:05:11.486Z,25.60
2018-12-13T04:06:11.291Z,23.90
2018-12-13T04:07:11.443Z,23.20
2018-12-13T04:08:11.295Z,24.50
2018-12-13T04:09:11.414Z,27.90
2018-12-13T04:10:11.246Z,29.70
2018-12-13T04:11:11.416Z,26.60
2018-12-13T04:12:11.218Z,26.10
2018-12-13T04:13:11.495Z,27.00
2018-12-13T04:14:11.206Z,23.90
2018-12-13T04:15:11.317Z,30.50
2018-12-13T04:16:11.177Z,27.70
2018-12-13T04:17:11.285Z,25.60
2018-12-13T04:18:11.226Z,26.50
2018-12-13T04:19:11.266Z,25.40
2018-12-13T04:20:11.133Z,24.70
2018-12-13T04:21:12.246Z,25.60
2018-12-13T04:22:11.115Z,25.40
2018-12-13T04:23:11.224Z,28.80
2018-12-13T04:24:11.092Z,22.90
2018-12-13T04:25:11.160Z,25.70
2018-12-13T04:26:11.072Z,27.90
2018-12-13T04:27:11.233Z,24.80
2018-12-13T04:28:11.066Z,24.50
2018-12-13T04:29:11.133Z,26.50
2018-12-13T04:30:11.028Z,29.70
2018-12-13T04:31:11.166Z,25.60
2018-12-13T04:32:10.996Z,24.00
2018-12-13T04:33:11.132Z,24.90
2018-12-13T04:34:10.996Z,26.60
2018-12-13T04:35:10.995Z,25.10
2018-12-13T04:36:10.955Z,25.40
2018-12-13T04:37:11.076Z,24.30
2018-12-13T04:38:10.926Z,28.00
2018-12-13T04:39:11.071Z,29.50
2018-12-13T04:40:10.902Z,28.60
2018-12-13T04:41:11.011Z,29.50
2018-12-13T04:42:10.880Z,28.70
2018-12-13T04:43:12.007Z,28.80
2018-12-13T04:44:10.883Z,26.80
2018-12-13T04:45:10.948Z,27.90
2018-12-13T04:46:10.839Z,26.80
2018-12-13T04:47:10.918Z,27.00
2018-12-13T04:48:10.812Z,24.20
2018-12-13T04:49:11.016Z,26.90
2018-12-13T04:50:10.794Z,27.20
2018-12-13T04:51:10.946Z,25.80
2018-12-13T04:52:10.769Z,27.30
2018-12-13T04:53:10.811Z,29.70
2018-12-13T04:54:10.769Z,27.80
2018-12-13T04:55:10.885Z,28.50
2018-12-13T04:56:10.740Z,26.10
2018-12-13T04:57:10.852Z,27.20
2018-12-13T04:58:10.707Z,26.70
2018-12-13T04:59:10.857Z,25.20
2018-12-13T05:00:10.689Z,30.30
2018-12-13T05:01:10.788Z,26.90
2018-12-13T05:02:10.663Z,31.60
2018-12-13T05:03:10.757Z,27.00
2018-12-13T05:04:10.653Z,25.80
2018-12-13T05:05:10.725Z,25.40
2018-12-13T05:06:10.611Z,25.90
2018-12-13T05:07:11.092Z,26.80
2018-12-13T05:08:10.599Z,27.00
2018-12-13T05:09:10.696Z,26.50
2018-12-13T05:10:10.564Z,28.20
2018-12-13T05:11:10.729Z,26.70
2018-12-13T05:12:10.545Z,27.30
2018-12-13T05:13:10.699Z,28.30
2018-12-13T05:14:10.526Z,27.30
2018-12-13T05:15:10.599Z,27.00
2018-12-13T05:16:10.504Z,25.90
2018-12-13T05:17:10.636Z,28.10
2018-12-13T05:18:10.484Z,28.40
2018-12-13T05:19:11.523Z,26.80
2018-12-13T05:20:10.483Z,28.80
2018-12-13T05:21:10.578Z,27.70
2018-12-13T05:22:10.439Z,24.30
2018-12-13T05:23:10.537Z,27.00
2018-12-13T05:24:10.408Z,25.80
2018-12-13T05:25:10.544Z,25.20
2018-12-13T05:26:10.385Z,27.00
2018-12-13T05:27:11.496Z,26.40
2018-12-13T05:28:10.363Z,26.70
2018-12-13T05:29:10.546Z,27.10
2018-12-13T05:30:10.400Z,24.30
2018-12-13T05:31:10.516Z,27.20
2018-12-13T05:32:10.342Z,26.90
2018-12-13T05:33:10.377Z,27.30
2018-12-13T05:34:10.300Z,28.50
2018-12-13T05:35:10.487Z,26.70
2018-12-13T05:36:10.282Z,28.30
2018-12-13T05:37:10.318Z,29.80
2018-12-13T05:38:10.249Z,27.70
2018-12-13T05:39:10.389Z,27.00
2018-12-13T05:40:10.268Z,27.20
2018-12-13T05:41:10.354Z,28.70
2018-12-13T05:42:10.222Z,27.10
2018-12-13T05:43:10.323Z,28.30
2018-12-13T05:44:10.191Z,29.50
2018-12-13T05:45:10.331Z,28.50
2018-12-13T05:46:10.177Z,26.70
2018-12-13T05:47:10.361Z,26.90
2018-12-13T05:48:10.153Z,28.20
2018-12-13T05:49:10.223Z,31.40
2018-12-13T05:50:10.265Z,30.60
2018-12-13T05:51:10.300Z,29.00
2018-12-13T05:52:10.101Z,27.80
2018-12-13T05:53:10.268Z,27.70
2018-12-13T05:54:10.086Z,27.30
2018-12-13T05:55:10.163Z,26.60
2018-12-13T05:56:10.052Z,28.80
2018-12-13T05:57:10.199Z,28.20
2018-12-13T05:58:10.029Z,32.80
2018-12-13T05:59:10.068Z,31.40
2018-12-13T06:00:10.031Z,30.40
2018-12-13T06:01:10.037Z,27.60
2018-12-13T06:02:09.987Z,30.10
2018-12-13T06:03:10.110Z,27.30
2018-12-13T06:04:09.982Z,27.40
2018-12-13T06:05:10.011Z,28.40
2018-12-13T06:06:09.942Z,28.40
2018-12-13T06:07:10.039Z,26.80
2018-12-13T06:08:09.926Z,27.60
2018-12-13T06:09:10.011Z,28.20
2018-12-13T06:10:09.892Z,31.10
2018-12-13T06:11:10.027Z,25.10
2018-12-13T06:12:09.876Z,27.30
2018-12-13T06:13:11.889Z,29.10
2018-12-13T06:14:09.849Z,29.20
2018-12-13T06:15:09.917Z,27.70
2018-12-13T06:16:09.873Z,29.50
2018-12-13T06:17:09.886Z,29.60
2018-12-13T06:18:09.804Z,27.30
2018-12-13T06:19:09.852Z,27.80
2018-12-13T06:20:09.785Z,30.00
2018-12-13T06:21:11.913Z,29.80
2018-12-13T06:22:09.758Z,30.20
2018-12-13T06:23:09.785Z,27.60
2018-12-13T06:24:09.768Z,31.80
2018-12-13T06:25:09.758Z,30.50
2018-12-13T06:26:09.732Z,33.10
2018-12-13T06:27:09.823Z,31.50
2018-12-13T06:28:09.696Z,30.80
2018-12-13T06:29:09.794Z,32.80
2018-12-13T06:30:09.666Z,33.70
2018-12-13T06:31:09.798Z,33.30
2018-12-13T06:32:09.648Z,32.00
2018-12-13T06:33:09.726Z,33.20
2018-12-13T06:34:09.621Z,26.40
2018-12-13T06:35:09.704Z,33.60
2018-12-13T06:36:09.633Z,31.20
2018-12-13T06:37:09.668Z,31.10
2018-12-13T06:38:09.584Z,33.80
2018-12-13T06:39:09.634Z,34.00
2018-12-13T06:40:15.459Z,31.10
2018-12-13T06:41:10.666Z,32.10
2018-12-13T06:42:09.540Z,33.90
2018-12-13T06:43:09.567Z,26.20
2018-12-13T06:44:09.514Z,127.60
2018-12-13T06:45:09.542Z,130.50
2018-12-13T06:46:09.512Z,79.60
2018-12-13T06:47:09.510Z,56.60
2018-12-13T06:48:09.472Z,46.80
2018-12-13T06:49:09.585Z,118.20
2018-12-13T06:50:09.446Z,101.30
2018-12-13T06:51:09.484Z,45.00
2018-12-13T06:52:09.424Z,50.10
2018-12-13T06:53:09.514Z,59.50
2018-12-13T06:54:09.398Z,53.10
2018-12-13T06:55:09.480Z,41.40
2018-12-13T06:56:09.412Z,38.10
2018-12-13T06:57:09.452Z,39.70
2018-12-13T06:58:09.354Z,41.90
2018-12-13T06:59:09.425Z,40.90
2018-12-13T07:00:09.345Z,37.30
2018-12-13T07:01:09.418Z,35.90
2018-12-13T07:02:09.310Z,31.90
2018-12-13T07:03:09.352Z,34.20
2018-12-13T07:04:09.288Z,35.50
2018-12-13T07:05:09.328Z,31.70
2018-12-13T07:06:09.292Z,32.70
2018-12-13T07:07:09.293Z,34.90
2018-12-13T07:08:09.242Z,131.50
2018-12-13T07:09:09.260Z,131.50
2018-12-13T07:10:09.217Z,154.70
2018-12-13T07:11:09.258Z,133.30
2018-12-13T07:12:09.206Z,119.20
2018-12-13T07:13:10.218Z,159.30
2018-12-13T07:14:09.176Z,157.20
2018-12-13T07:15:09.268Z,96.30
2018-12-13T07:16:09.178Z,88.80
2018-12-13T07:17:09.243Z,113.30
2018-12-13T07:18:09.130Z,183.70
2018-12-13T07:19:09.226Z,182.80
2018-12-13T07:20:09.110Z,103.90
2018-12-13T07:21:09.220Z,144.50
2018-12-13T07:22:09.090Z,93.10
2018-12-13T07:23:09.138Z,98.30
2018-12-13T07:24:09.066Z,90.40
2018-12-13T07:25:09.108Z,114.50
2018-12-13T07:26:09.060Z,91.70
2018-12-13T07:27:09.112Z,76.90
2018-12-13T07:28:09.020Z,62.50
2018-12-13T07:29:09.043Z,46.60
2018-12-13T07:30:08.998Z,50.90
2018-12-13T07:31:09.118Z,43.80
2018-12-13T07:32:09.006Z,43.90
2018-12-13T07:33:09.090Z,44.80
2018-12-13T07:34:08.961Z,31.70
2018-12-13T07:35:09.050Z,38.00
2018-12-13T07:36:08.935Z,29.80
2018-12-13T07:37:09.053Z,36.00
2018-12-13T07:38:14.240Z,33.40
2018-12-13T07:39:10.013Z,30.90
2018-12-13T07:40:08.885Z,32.90
2018-12-13T07:41:08.952Z,32.50
2018-12-13T07:42:08.896Z,32.00
2018-12-13T07:43:08.922Z,34.80
2018-12-13T07:44:08.838Z,31.80
2018-12-13T07:45:08.906Z,37.30
2018-12-13T07:46:08.814Z,69.60
2018-12-13T07:47:08.904Z,65.10
2018-12-13T07:48:08.795Z,44.90
2018-12-13T07:49:08.835Z,45.50
2018-12-13T07:50:08.772Z,62.40
2018-12-13T07:51:08.794Z,36.00
2018-12-13T07:52:08.775Z,47.10
2018-12-13T07:53:08.763Z,34.30
2018-12-13T07:54:08.725Z,62.70
2018-12-13T07:55:08.830Z,69.50
2018-12-13T07:56:08.704Z,75.90
2018-12-13T07:57:08.734Z,64.10
2018-12-13T07:58:08.684Z,67.70
2018-12-13T07:59:08.773Z,46.50
2018-12-13T08:00:08.661Z,52.90
2018-12-13T08:01:08.744Z,43.90
2018-12-13T08:02:08.655Z,36.80
2018-12-13T08:03:08.706Z,33.70
2018-12-13T08:04:08.614Z,33.80
2018-12-13T08:05:08.672Z,29.80
2018-12-13T08:06:08.586Z,30.90
2018-12-13T08:07:08.684Z,28.70
2018-12-13T08:08:08.572Z,26.80
2018-12-13T08:09:08.607Z,33.80
2018-12-13T08:10:08.557Z,32.60
2018-12-13T08:11:08.582Z,36.30
2018-12-13T08:12:08.537Z,31.00
2018-12-13T08:13:08.547Z,32.00
2018-12-13T08:14:08.501Z,48.70
2018-12-13T08:15:08.621Z,31.60
2018-12-13T08:16:08.479Z,31.90
2018-12-13T08:17:08.520Z,28.00
2018-12-13T08:18:08.456Z,41.60
2018-12-13T08:19:08.551Z,34.80
2018-12-13T08:20:08.445Z,33.50
2018-12-13T08:21:09.550Z,32.30
2018-12-13T08:22:08.441Z,33.70
2018-12-13T08:23:09.514Z,33.20
2018-12-13T08:24:08.387Z,31.80
2018-12-13T08:25:08.463Z,27.60
2018-12-13T08:26:08.371Z,35.30
2018-12-13T08:27:09.447Z,37.50
2018-12-13T08:28:08.371Z,34.80
2018-12-13T08:29:08.553Z,35.90
2018-12-13T08:30:08.320Z,31.20
2018-12-13T08:31:09.380Z,26.90
2018-12-13T08:32:08.300Z,31.40
2018-12-13T08:33:08.364Z,28.40
2018-12-13T08:34:08.282Z,31.80
2018-12-13T08:35:08.293Z,32.80
2018-12-13T08:36:08.253Z,34.40
2018-12-13T08:37:08.479Z,32.40
2018-12-13T08:38:08.249Z,36.00
2018-12-13T08:39:08.335Z,30.40
2018-12-13T08:40:08.213Z,30.50
2018-12-13T08:41:08.306Z,29.30
2018-12-13T08:42:08.189Z,35.60
2018-12-13T08:43:08.311Z,34.00
2018-12-13T08:44:08.169Z,33.30
2018-12-13T08:45:08.242Z,29.20
2018-12-13T08:46:08.145Z,37.60
2018-12-13T08:47:08.248Z,37.80
2018-12-13T08:48:08.144Z,38.00
2018-12-13T08:49:09.198Z,32.30
2018-12-13T08:50:08.096Z,32.20
2018-12-13T08:51:08.140Z,29.00
2018-12-13T08:52:08.078Z,34.30
2018-12-13T08:53:08.158Z,47.40
2018-12-13T08:54:08.050Z,39.10
2018-12-13T08:55:08.086Z,44.50
2018-12-13T08:56:08.030Z,37.00
2018-12-13T08:57:08.054Z,37.80
2018-12-13T08:58:08.024Z,40.30
2018-12-13T08:59:08.122Z,42.30
2018-12-13T09:00:07.988Z,24.20
2018-12-13T09:01:08.088Z,35.70
2018-12-13T09:02:07.964Z,32.80
2018-12-13T09:03:08.098Z,48.40
2018-12-13T09:04:07.942Z,29.50
2018-12-13T09:05:09.050Z,36.90
2018-12-13T09:06:07.920Z,30.30
2018-12-13T09:07:11.058Z,34.30
2018-12-13T09:08:07.912Z,28.60
2018-12-13T09:09:10.004Z,27.40
2018-12-13T09:10:07.875Z,24.70
2018-12-13T09:11:07.924Z,27.50
2018-12-13T09:12:07.850Z,27.80
2018-12-13T09:13:07.948Z,27.60
2018-12-13T09:14:07.828Z,28.70
2018-12-13T09:15:07.864Z,31.80
2018-12-13T09:16:07.803Z,30.00
2018-12-13T09:17:07.838Z,32.10
2018-12-13T09:18:07.805Z,33.20
2018-12-13T09:19:07.800Z,29.60
2018-12-13T09:20:07.761Z,46.50
2018-12-13T09:21:07.868Z,24.00
2018-12-13T09:22:07.734Z,28.30
2018-12-13T09:23:07.773Z,27.10
2018-12-13T09:24:07.740Z,26.90
2018-12-13T09:25:07.808Z,22.80
2018-12-13T09:26:07.696Z,25.80
2018-12-13T09:27:07.780Z,23.70
2018-12-13T09:28:07.698Z,22.40
2018-12-13T09:29:07.780Z,26.20
2018-12-13T09:30:07.652Z,38.00
2018-12-13T09:31:07.716Z,29.30
2018-12-13T09:32:07.629Z,30.50
2018-12-13T09:33:07.686Z,32.80
2018-12-13T09:34:07.653Z,34.20
2018-12-13T09:35:07.646Z,33.70
2018-12-13T09:36:07.578Z,34.60
2018-12-13T09:37:08.646Z,45.20
2018-12-13T09:38:07.562Z,32.60
2018-12-13T09:39:08.649Z,40.10
2018-12-13T09:40:07.552Z,27.80
2018-12-13T09:41:07.559Z,36.60
2018-12-13T09:42:07.518Z,23.30
2018-12-13T09:43:07.629Z,23.00
2018-12-13T09:44:07.515Z,37.90
2018-12-13T09:45:07.591Z,37.60
2018-12-13T09:46:07.506Z,26.70
2018-12-13T09:47:07.558Z,25.50
2018-12-13T09:48:07.450Z,23.30
2018-12-13T09:49:07.562Z,28.00
2018-12-13T09:50:08.148Z,22.40
2018-12-13T09:51:07.496Z,26.00
2018-12-13T09:52:07.398Z,23.60
2018-12-13T09:53:07.464Z,29.20
2018-12-13T09:54:07.394Z,25.80
2018-12-13T09:55:07.426Z,23.80
2018-12-13T09:56:07.353Z,21.60
2018-12-13T09:57:07.410Z,21.20
2018-12-13T09:58:07.332Z,22.40
2018-12-13T09:59:07.401Z,28.70
2018-12-13T10:00:07.312Z,40.20
2018-12-13T10:01:07.352Z,53.10
2018-12-13T10:02:07.291Z,49.20
2018-12-13T10:03:07.308Z,51.50
2018-12-13T10:04:07.287Z,57.30
2018-12-13T10:05:07.379Z,57.40
2018-12-13T10:06:07.240Z,51.70
2018-12-13T10:07:09.282Z,57.40
2018-12-13T10:08:07.224Z,41.80
2018-12-13T10:09:07.342Z,40.80
2018-12-13T10:10:07.205Z,48.50
2018-12-13T10:11:07.277Z,40.20
2018-12-13T10:12:07.174Z,36.20
2018-12-13T10:13:07.250Z,29.40
2018-12-13T10:14:07.174Z,31.70
2018-12-13T10:15:07.216Z,43.10
2018-12-13T10:16:07.149Z,33.00
2018-12-13T10:17:07.182Z,53.70
2018-12-13T10:18:07.121Z,39.20
2018-12-13T10:19:07.202Z,32.90
2018-12-13T10:20:07.102Z,36.80
2018-12-13T10:21:07.122Z,40.40
2018-12-13T10:22:11.700Z,36.10
2018-12-13T10:23:07.086Z,54.10
2018-12-13T10:24:07.087Z,61.80
2018-12-13T10:25:07.166Z,67.90
2018-12-13T10:26:07.023Z,40.50
2018-12-13T10:27:07.143Z,37.10
2018-12-13T10:28:07.005Z,29.60
2018-12-13T10:29:07.093Z,62.20
2018-12-13T10:30:06.987Z,60.50
2018-12-13T10:31:07.063Z,43.60
2018-12-13T10:32:06.951Z,64.20
2018-12-13T10:33:08.055Z,63.60
2018-12-13T10:34:06.931Z,38.20
2018-12-13T10:35:11.300Z,36.10
2018-12-13T10:36:06.911Z,35.90
2018-12-13T10:37:08.006Z,46.50
2018-12-13T10:38:06.885Z,53.50
2018-12-13T10:39:06.929Z,55.40
2018-12-13T10:40:06.886Z,96.40
2018-12-13T10:41:06.904Z,30.40
2018-12-13T10:42:06.839Z,48.80
2018-12-13T10:43:06.869Z,41.80
2018-12-13T10:44:06.816Z,59.60
2018-12-13T10:45:06.887Z,44.70
2018-12-13T10:46:06.799Z,37.30
2018-12-13T10:47:06.907Z,35.90
2018-12-13T10:48:06.770Z,29.10
2018-12-13T10:49:06.879Z,31.60
2018-12-13T10:50:06.781Z,52.20
2018-12-13T10:51:06.850Z,27.50
2018-12-13T10:52:06.729Z,34.80
2018-12-13T10:53:06.813Z,26.40
2018-12-13T10:54:06.704Z,26.50
2018-12-13T10:55:06.811Z,23.60
2018-12-13T10:56:06.682Z,27.80
2018-12-13T10:57:06.756Z,27.70
2018-12-13T10:58:06.661Z,23.30
2018-12-13T10:59:06.719Z,21.90
2018-12-13T11:00:06.649Z,22.50
2018-12-13T11:01:06.695Z,20.80
2018-12-13T11:02:06.615Z,24.90
2018-12-13T11:03:06.652Z,24.30
2018-12-13T11:04:06.594Z,29.90
2018-12-13T11:05:06.656Z,38.60
2018-12-13T11:06:06.570Z,23.00
2018-12-13T11:07:06.586Z,26.70
2018-12-13T11:08:06.551Z,21.40
2018-12-13T11:09:06.658Z,20.80
2018-12-13T11:10:06.550Z,24.40
2018-12-13T11:11:06.626Z,21.10
2018-12-13T11:12:06.498Z,16.20
2018-12-13T11:13:06.594Z,20.10
2018-12-13T11:14:06.488Z,17.90
2018-12-13T11:15:06.570Z,17.30
2018-12-13T11:16:06.484Z,17.90
2018-12-13T11:17:07.560Z,47.00
2018-12-13T11:18:06.434Z,19.10
2018-12-13T11:19:07.525Z,19.50
2018-12-13T11:20:06.412Z,24.10
2018-12-13T11:21:06.507Z,19.70
2018-12-13T11:22:06.382Z,22.70
2018-12-13T11:23:06.439Z,16.80
2018-12-13T11:24:06.368Z,17.70
2018-12-13T11:25:06.402Z,24.20
2018-12-13T11:26:06.361Z,23.20
2018-12-13T11:27:07.394Z,20.00
2018-12-13T11:28:06.316Z,22.70
2018-12-13T11:29:06.344Z,21.60
2018-12-13T11:30:06.294Z,15.20
2018-12-13T11:31:06.350Z,19.10
2018-12-13T11:32:06.281Z,22.90
2018-12-13T11:33:06.380Z,19.20
2018-12-13T11:34:06.260Z,20.80
2018-12-13T11:35:06.352Z,19.20
2018-12-13T11:36:06.262Z,22.30
2018-12-13T11:37:06.319Z,18.90
2018-12-13T11:38:06.207Z,15.80
2018-12-13T11:39:06.283Z,16.00
2018-12-13T11:40:06.188Z,12.10
2018-12-13T11:41:06.290Z,16.70
2018-12-13T11:42:06.169Z,16.70
2018-12-13T11:43:06.222Z,21.40
2018-12-13T11:44:06.148Z,23.60
2018-12-13T11:45:06.194Z,19.70
2018-12-13T11:46:06.141Z,15.50
2018-12-13T11:47:06.156Z,18.40
2018-12-13T11:48:06.100Z,17.80
2018-12-13T11:49:11.910Z,17.60
2018-12-13T11:50:07.073Z,18.10
2018-12-13T11:51:06.127Z,16.60
2018-12-13T11:52:06.051Z,18.80
2018-12-13T11:53:06.057Z,18.50
2018-12-13T11:54:06.031Z,18.10
2018-12-13T11:55:06.132Z,16.40
2018-12-13T11:56:06.000Z,18.70
2018-12-13T11:57:06.139Z,21.90
2018-12-13T11:58:05.982Z,20.90
2018-12-13T11:59:06.068Z,19.70
2018-12-13T12:00:05.960Z,21.00
2018-12-13T12:01:07.071Z,31.10
2018-12-13T12:02:05.963Z,29.40
2018-12-13T12:03:06.006Z,25.90
2018-12-13T12:04:05.920Z,26.70
2018-12-13T12:05:05.968Z,18.70
2018-12-13T12:06:05.894Z,22.60
2018-12-13T12:07:05.980Z,21.50
2018-12-13T12:08:05.875Z,25.40
2018-12-13T12:09:12.051Z,25.70
2018-12-13T12:10:06.848Z,23.20
2018-12-13T12:11:06.898Z,26.00
2018-12-13T12:12:05.846Z,29.40
2018-12-13T12:13:05.854Z,29.80
2018-12-13T12:14:05.804Z,26.00
2018-12-13T12:15:05.921Z,23.50
2018-12-13T12:16:05.799Z,21.30
2018-12-13T12:17:05.916Z,22.50
2018-12-13T12:18:05.760Z,21.90
2018-12-13T12:19:05.852Z,24.70
2018-12-13T12:20:05.737Z,20.90
2018-12-13T12:21:05.822Z,26.90
2018-12-13T12:22:05.732Z,23.30
2018-12-13T12:23:06.820Z,25.30
2018-12-13T12:24:05.694Z,23.50
2018-12-13T12:25:05.754Z,24.50
2018-12-13T12:26:05.669Z,22.60
2018-12-13T12:27:05.766Z,21.20
2018-12-13T12:28:05.656Z,22.60
2018-12-13T12:29:05.692Z,21.80
2018-12-13T12:30:05.633Z,23.30
2018-12-13T12:31:05.668Z,20.10
2018-12-13T12:32:05.614Z,22.40
2018-12-13T12:33:05.626Z,22.40
2018-12-13T12:34:05.579Z,18.70
2018-12-13T12:35:05.594Z,21.00
2018-12-13T12:36:05.565Z,20.50
2018-12-13T12:37:05.600Z,20.70
2018-12-13T12:38:05.536Z,23.20
2018-12-13T12:39:05.634Z,23.20
2018-12-13T12:40:05.509Z,32.80
2018-12-13T12:41:05.606Z,34.30
2018-12-13T12:42:05.514Z,26.70
2018-12-13T12:43:05.574Z,24.90
2018-12-13T12:44:05.494Z,22.40
2018-12-13T12:45:05.544Z,25.60
2018-12-13T12:46:05.450Z,25.10
2018-12-13T12:47:05.540Z,23.90
2018-12-13T12:48:05.444Z,20.00
2018-12-13T12:49:05.481Z,27.90
2018-12-13T12:50:05.402Z,25.50
2018-12-13T12:51:05.448Z,24.60
2018-12-13T12:52:05.404Z,27.50